Time;durP1;ratioP1;P1;durP2;ratioP2;P2;SDS_P1;SDS_P2;PMS_P1;PMS_P2;Temp;Humidity;BMP_temperature;BMP_pressure;BME280_temperature;BME280_humidity;BME280_pressure;Samples;Min_cycle;Max_cycle;Signal;HPM_P1;HPM_P2
2023/04/29 00:01:14;;;;;;;2.90;1.80;;;11.00;77.20;;;;;;5038515;28;46059;-70
2023/04/29 00:03:40;;;;;;;2.87;1.90;;;11.00;77.00;;;;;;5038401;28;46393;-70
2023/04/29 00:06:06;;;;;;;3.80;2.00;;;11.00;77.10;;;;;;5039839;28;46578;-70
2023/04/29 00:08:31;;;;;;;4.37;2.30;;;10.90;77.10;;;;;;5038016;28;46338;-70
2023/04/29 00:10:57;;;;;;;3.50;2.03;;;10.90;77.30;;;;;;5034752;28;46276;-70
2023/04/29 00:13:23;;;;;;;2.63;1.83;;;10.90;77.40;;;;;;5037073;28;46346;-70
2023/04/29 00:15:49;;;;;;;5.97;1.77;;;10.90;77.20;;;;;;5038458;28;46447;-70
2023/04/29 00:18:15;;;;;;;2.70;1.57;;;10.80;77.30;;;;;;5040006;28;46443;-71
2023/04/29 00:20:42;;;;;;;6.17;2.90;;;10.80;77.00;;;;;;5038290;28;46632;-71
2023/04/29 00:23:07;;;;;;;4.57;2.40;;;10.80;77.00;;;;;;5040011;28;46460;-70
2023/04/29 00:25:34;;;;;;;4.70;2.63;;;10.80;76.70;;;;;;5039255;28;46483;-70
2023/04/29 00:28:01;;;;;;;4.77;2.57;;;10.80;76.50;;;;;;5039143;28;46435;-70
2023/04/29 00:30:27;;;;;;;6.17;3.43;;;10.90;76.60;;;;;;5035172;28;46351;-71
2023/04/29 00:32:54;;;;;;;9.13;2.80;;;10.90;76.60;;;;;;5034970;28;46284;-70
2023/04/29 00:35:20;;;;;;;4.83;3.20;;;10.90;76.60;;;;;;5037772;28;46306;-70
2023/04/29 00:37:45;;;;;;;4.90;2.60;;;11.00;76.60;;;;;;5039685;28;46405;-70
2023/04/29 00:40:13;;;;;;;6.40;3.07;;;11.00;76.70;;;;;;5040061;28;45984;-71
2023/04/29 00:42:40;;;;;;;4.67;3.27;;;11.00;76.80;;;;;;5036801;28;45789;-70
2023/04/29 00:45:06;;;;;;;6.43;3.33;;;11.00;76.70;;;;;;5039667;28;46481;-70
2023/04/29 00:47:32;;;;;;;5.97;3.40;;;11.10;76.70;;;;;;5036953;28;46474;-70
2023/04/29 00:49:58;;;;;;;7.40;3.90;;;11.10;76.70;;;;;;5035686;28;47179;-70
2023/04/29 00:52:24;;;;;;;6.53;3.30;;;11.10;76.80;;;;;;5038236;28;46755;-70
2023/04/29 00:54:51;;;;;;;4.13;3.30;;;11.10;76.80;;;;;;5037446;28;46435;-70
2023/04/29 00:57:18;;;;;;;3.47;2.70;;;11.00;77.00;;;;;;5039692;28;46416;-70
2023/04/29 00:59:44;;;;;;;5.40;3.33;;;11.00;77.30;;;;;;5033378;28;47129;-70
2023/04/29 01:02:10;;;;;;;3.30;2.40;;;10.90;77.50;;;;;;5036796;28;46616;-70
2023/04/29 01:04:36;;;;;;;6.07;3.17;;;10.80;77.70;;;;;;5037820;28;46411;-70
2023/04/29 01:07:17;;;;;;;5.30;3.23;;;10.80;77.70;;;;;;5037197;28;46557;-71
2023/04/29 01:10:01;;;;;;;4.33;3.10;;;10.70;77.60;;;;;;5038389;28;47095;-70
2023/04/29 01:12:35;;;;;;;5.90;4.17;;;10.80;77.70;;;;;;5037241;28;46497;-71
2023/04/29 01:15:24;;;;;;;6.23;4.00;;;10.90;77.80;;;;;;5053617;28;46446;-70
2023/04/29 01:18:14;;;;;;;4.80;3.50;;;11.00;77.20;;;;;;5038636;28;46188;-70
2023/04/29 01:20:40;;;;;;;5.13;3.90;;;11.10;77.20;;;;;;5036718;28;46035;-70
2023/04/29 01:23:06;;;;;;;4.83;3.70;;;11.10;77.40;;;;;;5041249;28;46429;-70
2023/04/29 01:25:32;;;;;;;7.73;4.57;;;11.00;77.70;;;;;;5039342;28;46470;-70
2023/04/29 01:28:03;;;;;;;7.10;4.57;;;11.00;79.10;;;;;;5039169;28;46456;-69
2023/04/29 01:30:53;;;;;;;7.70;4.37;;;10.90;77.80;;;;;;5040018;28;47417;-70
2023/04/29 01:33:28;;;;;;;6.43;4.20;;;11.00;77.90;;;;;;5040237;28;46363;-71
2023/04/29 01:36:28;;;;;;;6.90;4.03;;;11.00;77.90;;;;;;5035819;28;45779;-71
2023/04/29 01:39:18;;;;;;;8.60;4.83;;;11.00;77.90;;;;;;5035096;28;46500;-70
2023/04/29 01:41:56;;;;;;;8.90;4.50;;;11.00;77.90;;;;;;5037813;28;46651;-70
2023/04/29 01:44:26;;;;;;;6.13;4.10;;;11.00;77.90;;;;;;5039550;28;46353;-71
2023/04/29 01:46:52;;;;;;;7.87;4.93;;;11.00;77.90;;;;;;5038584;28;46476;-71
2023/04/29 01:49:25;;;;;;;6.33;4.83;;;11.00;77.90;;;;;;5039866;28;46494;-70
2023/04/29 01:51:51;;;;;;;11.40;4.57;;;11.00;77.90;;;;;;5038084;28;46467;-70
2023/04/29 01:54:16;;;;;;;9.23;5.20;;;11.10;78.00;;;;;;5039789;28;46483;-70
2023/04/29 01:56:43;;;;;;;9.20;5.10;;;11.10;78.00;;;;;;5041042;28;46482;-70
2023/04/29 01:59:08;;;;;;;8.67;5.50;;;11.20;78.10;;;;;;5039512;28;46381;-70
2023/04/29 02:01:34;;;;;;;8.67;5.93;;;11.30;77.70;;;;;;5038790;28;46398;-70
2023/04/29 02:04:00;;;;;;;7.50;5.10;;;11.30;77.60;;;;;;5038637;28;46315;-69
2023/04/29 02:06:25;;;;;;;12.23;5.37;;;11.30;77.70;;;;;;5039998;28;46077;-70
2023/04/29 02:08:51;;;;;;;8.23;5.37;;;11.30;78.20;;;;;;5039959;28;46420;-70
2023/04/29 02:11:17;;;;;;;9.87;6.40;;;11.30;78.20;;;;;;5038833;28;47066;-70
2023/04/29 02:13:42;;;;;;;7.90;5.43;;;11.30;78.20;;;;;;5039502;28;45837;-70
2023/04/29 02:16:13;;;;;;;12.63;5.57;;;11.20;78.10;;;;;;5039637;28;46424;-70
2023/04/29 02:18:39;;;;;;;8.50;5.37;;;11.20;78.10;;;;;;5041643;28;46442;-70
2023/04/29 02:21:05;;;;;;;14.10;5.20;;;11.20;78.10;;;;;;5039864;28;47081;-70
2023/04/29 02:23:31;;;;;;;9.53;5.00;;;11.20;78.10;;;;;;5040907;28;46590;-70
2023/04/29 02:25:57;;;;;;;11.37;4.80;;;11.10;78.00;;;;;;5037172;28;46244;-70
2023/04/29 02:28:22;;;;;;;8.20;5.07;;;11.10;78.00;;;;;;5040324;28;46232;-70
2023/04/29 02:30:48;;;;;;;9.40;5.13;;;11.10;78.00;;;;;;5038501;28;46448;-70
2023/04/29 02:33:15;;;;;;;9.17;5.27;;;11.10;78.00;;;;;;5041895;28;46461;-69
2023/04/29 02:35:40;;;;;;;6.90;5.00;;;11.00;77.90;;;;;;5038732;28;46379;-71
2023/04/29 02:38:06;;;;;;;8.93;5.27;;;11.00;78.00;;;;;;5040157;28;46567;-71
2023/04/29 02:40:32;;;;;;;6.93;5.13;;;11.00;78.00;;;;;;5037927;28;47035;-71
2023/04/29 02:42:58;;;;;;;11.10;5.40;;;10.90;77.80;;;;;;5037364;28;45915;-70
2023/04/29 02:45:23;;;;;;;7.33;5.30;;;10.90;78.20;;;;;;5033926;28;45799;-71
2023/04/29 02:47:49;;;;;;;9.83;5.30;;;10.90;78.40;;;;;;5038318;28;46759;-71
2023/04/29 02:50:15;;;;;;;8.43;5.20;;;10.90;78.40;;;;;;5036026;28;47202;-70
2023/04/29 02:52:43;;;;;;;11.77;5.93;;;10.80;78.60;;;;;;5037378;28;46440;-71
2023/04/29 02:55:09;;;;;;;9.73;5.60;;;10.80;78.50;;;;;;5037406;28;46349;-70
2023/04/29 02:57:34;;;;;;;10.07;5.63;;;10.80;78.60;;;;;;5039802;28;46387;-70
2023/04/29 03:00:00;;;;;;;12.30;5.30;;;10.90;78.60;;;;;;5038454;28;47008;-70
2023/04/29 03:02:26;;;;;;;8.30;5.53;;;10.80;78.60;;;;;;5037412;28;46418;-70
2023/04/29 03:04:52;;;;;;;10.67;5.10;;;10.80;78.70;;;;;;5039954;28;46544;-70
2023/04/29 03:07:17;;;;;;;9.90;6.30;;;10.80;78.80;;;;;;5040371;28;46407;-71
2023/04/29 03:09:43;;;;;;;11.03;6.30;;;10.80;78.90;;;;;;5041803;28;46509;-71
2023/04/29 03:12:09;;;;;;;10.27;6.57;;;10.80;78.90;;;;;;5043940;28;46577;-70
2023/04/29 03:14:35;;;;;;;12.10;7.10;;;10.80;79.10;;;;;;5039105;28;46368;-71
2023/04/29 03:17:00;;;;;;;11.30;7.13;;;10.80;79.00;;;;;;5039008;28;45887;-70
2023/04/29 03:19:26;;;;;;;11.23;7.33;;;10.90;78.90;;;;;;5037118;28;47240;-70
2023/04/29 03:21:52;;;;;;;11.10;7.60;;;11.00;78.90;;;;;;5037303;28;46535;-70
2023/04/29 03:24:17;;;;;;;12.13;6.83;;;11.00;78.90;;;;;;5039563;28;46298;-70
2023/04/29 03:26:43;;;;;;;9.13;5.87;;;10.90;79.00;;;;;;5038907;28;46299;-71
2023/04/29 03:29:09;;;;;;;11.10;6.27;;;10.90;79.10;;;;;;5040303;28;46614;-70
2023/04/29 03:31:34;;;;;;;10.47;6.60;;;10.80;79.20;;;;;;5039593;28;46475;-70
2023/04/29 03:34:00;;;;;;;11.43;6.87;;;10.80;79.40;;;;;;5039465;28;46393;-71
2023/04/29 03:36:26;;;;;;;11.63;7.23;;;10.80;79.40;;;;;;5036607;28;46422;-71
2023/04/29 03:38:52;;;;;;;10.43;7.10;;;10.80;79.50;;;;;;5033677;28;48191;-71
2023/04/29 03:41:17;;;;;;;14.33;7.67;;;10.80;79.30;;;;;;5036233;28;46432;-70
2023/04/29 03:43:43;;;;;;;12.87;7.10;;;10.80;79.30;;;;;;5037401;28;45904;-70
2023/04/29 03:46:09;;;;;;;12.60;7.23;;;10.80;79.40;;;;;;5038945;28;46464;-71
2023/04/29 03:48:35;;;;;;;13.60;6.50;;;10.80;79.50;;;;;;5038605;28;46060;-71
2023/04/29 03:51:01;;;;;;;15.60;7.00;;;10.70;79.60;;;;;;5039163;28;46604;-71
2023/04/29 03:53:27;;;;;;;11.90;7.27;;;10.70;79.70;;;;;;5052344;28;46458;-71
2023/04/29 03:55:53;;;;;;;14.27;7.57;;;10.70;79.50;;;;;;5040400;28;46545;-71
2023/04/29 03:58:18;;;;;;;13.97;7.50;;;10.80;79.60;;;;;;5039674;28;46319;-71
2023/04/29 04:00:44;;;;;;;15.97;7.93;;;10.80;79.50;;;;;;5038374;28;46472;-71
2023/04/29 04:03:10;;;;;;;14.07;7.70;;;10.70;79.20;;;;;;5038608;28;45802;-71
2023/04/29 04:05:35;;;;;;;14.80;7.90;;;10.80;79.20;;;;;;5036788;28;46650;-70
2023/04/29 04:08:01;;;;;;;14.97;8.90;;;10.90;79.00;;;;;;5038041;28;46435;-70
2023/04/29 04:10:27;;;;;;;15.50;8.57;;;11.00;78.60;;;;;;5037225;28;46496;-70
2023/04/29 04:12:53;;;;;;;18.33;9.30;;;11.20;78.10;;;;;;5038359;28;46475;-71
2023/04/29 04:15:18;;;;;;;20.90;11.70;;;11.40;78.30;;;;;;5040121;28;46364;-70
2023/04/29 04:17:44;;;;;;;21.83;11.57;;;11.70;77.60;;;;;;5039041;28;46368;-70
2023/04/29 04:20:10;;;;;;;23.93;12.33;;;11.90;77.00;;;;;;5036527;28;46401;-71
2023/04/29 04:22:36;;;;;;;35.33;15.40;;;12.00;76.60;;;;;;5038359;28;46254;-70
2023/04/29 04:25:03;;;;;;;29.97;14.27;;;12.20;76.50;;;;;;5038765;28;46418;-71
2023/04/29 04:27:29;;;;;;;34.60;13.60;;;12.30;76.40;;;;;;5036386;28;46615;-70
2023/04/29 04:29:55;;;;;;;23.33;12.87;;;12.50;76.40;;;;;;5037455;28;46365;-70
2023/04/29 04:32:22;;;;;;;22.87;12.30;;;12.60;76.30;;;;;;5038147;28;46505;-70
2023/04/29 04:34:48;;;;;;;18.83;12.87;;;12.70;76.30;;;;;;5040507;28;46253;-71
2023/04/29 04:37:14;;;;;;;23.60;12.90;;;12.80;76.20;;;;;;5037397;28;45983;-70
2023/04/29 04:39:39;;;;;;;27.27;13.23;;;12.80;76.10;;;;;;5039254;28;46283;-70
2023/04/29 04:42:05;;;;;;;23.57;13.77;;;12.90;76.10;;;;;;5038760;28;46645;-71
2023/04/29 04:44:31;;;;;;;25.37;14.00;;;13.00;76.20;;;;;;5038631;28;46372;-70
2023/04/29 04:46:57;;;;;;;24.53;13.30;;;13.00;76.20;;;;;;5037467;28;47134;-69
2023/04/29 04:49:26;;;;;;;26.90;13.93;;;13.10;76.40;;;;;;5037471;28;46408;-70
2023/04/29 04:51:52;;;;;;;29.27;14.10;;;13.20;76.40;;;;;;5040209;28;46495;-70
2023/04/29 04:54:18;;;;;;;28.47;13.80;;;13.20;76.40;;;;;;5041370;28;46468;-71
2023/04/29 04:56:43;;;;;;;25.93;13.90;;;13.30;76.40;;;;;;5041576;28;46361;-70
2023/04/29 04:59:09;;;;;;;30.33;14.80;;;13.30;76.60;;;;;;5042478;28;46283;-70
2023/04/29 05:01:34;;;;;;;32.50;16.03;;;13.30;76.90;;;;;;5039639;28;46367;-71
2023/04/29 05:04:01;;;;;;;25.10;13.93;;;13.40;76.90;;;;;;5041574;28;46345;-71
2023/04/29 05:06:27;;;;;;;26.30;14.20;;;13.40;77.00;;;;;;5042842;28;46434;-71
2023/04/29 05:08:52;;;;;;;24.20;14.83;;;13.30;77.30;;;;;;5041325;28;46334;-71
2023/04/29 05:11:21;;;;;;;29.70;15.80;;;13.40;77.50;;;;;;5039756;28;45917;-70
2023/04/29 05:13:47;;;;;;;29.00;15.63;;;13.50;77.30;;;;;;5042561;28;46143;-71
2023/04/29 05:16:13;;;;;;;24.60;13.80;;;13.70;77.10;;;;;;5045348;28;46767;-70
2023/04/29 05:18:39;;;;;;;27.23;14.80;;;13.80;76.70;;;;;;5043454;28;46421;-71
2023/04/29 05:21:04;;;;;;;22.90;13.63;;;13.90;76.40;;;;;;5038835;28;46509;-70
2023/04/29 05:23:30;;;;;;;30.23;13.60;;;14.00;76.30;;;;;;5042707;28;46364;-71
2023/04/29 05:25:56;;;;;;;23.53;12.17;;;14.20;76.30;;;;;;5039897;28;46282;-71
2023/04/29 05:28:21;;;;;;;18.83;11.77;;;14.20;76.30;;;;;;5039910;28;46165;-71
2023/04/29 05:30:50;;;;;;;17.70;11.50;;;14.30;76.40;;;;;;5041448;28;46487;-70
2023/04/29 05:33:16;;;;;;;15.97;11.10;;;14.30;76.40;;;;;;5041150;28;46511;-70
2023/04/29 05:35:41;;;;;;;19.83;12.40;;;14.40;76.50;;;;;;5039718;28;46429;-70
2023/04/29 05:38:07;;;;;;;18.73;11.80;;;14.50;76.40;;;;;;5039599;28;46412;-71
2023/04/29 05:40:33;;;;;;;17.03;10.73;;;14.60;76.20;;;;;;5039860;28;45849;-71
2023/04/29 05:42:59;;;;;;;16.70;10.93;;;14.70;76.10;;;;;;5039999;28;46220;-71
2023/04/29 05:45:24;;;;;;;16.27;9.80;;;14.90;75.80;;;;;;5040476;28;46374;-70
2023/04/29 05:47:50;;;;;;;11.67;9.10;;;15.00;75.80;;;;;;5042373;28;46424;-70
2023/04/29 05:50:16;;;;;;;16.10;10.50;;;15.10;75.70;;;;;;5042334;28;46302;-69
2023/04/29 05:52:41;;;;;;;13.40;8.70;;;15.30;75.40;;;;;;5040188;28;46373;-70
2023/04/29 05:55:07;;;;;;;11.83;9.10;;;15.40;75.30;;;;;;5039885;28;47102;-70
2023/04/29 05:57:33;;;;;;;12.60;8.20;;;15.50;75.60;;;;;;5037965;28;46524;-71
2023/04/29 05:59:59;;;;;;;10.40;7.63;;;15.90;75.20;;;;;;5037923;28;46102;-72
2023/04/29 06:02:25;;;;;;;9.23;6.50;;;16.10;74.90;;;;;;5039159;28;46393;-72
2023/04/29 06:04:51;;;;;;;12.40;7.40;;;16.30;75.20;;;;;;5039846;28;47243;-71
2023/04/29 06:07:17;;;;;;;7.57;5.90;;;16.40;75.20;;;;;;5039877;28;46299;-74
2023/04/29 06:09:43;;;;;;;8.73;6.27;;;17.20;74.70;;;;;;5041837;28;45932;-71
2023/04/29 06:12:09;;;;;;;10.57;6.20;;;17.60;74.10;;;;;;5040087;28;46585;-72
2023/04/29 06:14:34;;;;;;;8.93;5.93;;;17.40;74.20;;;;;;5041310;28;47034;-72
2023/04/29 06:17:00;;;;;;;8.73;6.23;;;17.20;74.10;;;;;;5040468;28;46312;-72
2023/04/29 06:19:26;;;;;;;8.60;6.17;;;17.00;74.50;;;;;;5039434;28;46393;-72
2023/04/29 06:21:52;;;;;;;6.87;5.23;;;17.20;74.30;;;;;;5039734;28;46496;-72
2023/04/29 06:24:17;;;;;;;7.43;4.80;;;17.50;74.10;;;;;;5040052;28;46318;-72
2023/04/29 06:26:43;;;;;;;7.53;4.90;;;17.20;74.40;;;;;;5038477;28;46342;-71
2023/04/29 06:29:09;;;;;;;8.70;4.90;;;17.20;74.70;;;;;;5038616;28;46625;-72
2023/04/29 06:31:34;;;;;;;10.10;5.30;;;17.60;74.20;;;;;;5038573;28;46537;-72
2023/04/29 06:34:00;;;;;;;7.77;5.10;;;17.40;72.60;;;;;;5037146;28;48998;-72
2023/04/29 06:36:27;;;;;;;10.17;5.50;;;17.10;72.00;;;;;;5039250;28;46437;-72
2023/04/29 06:38:52;;;;;;;7.10;5.53;;;16.90;72.40;;;;;;5040157;28;46342;-72
2023/04/29 06:41:18;;;;;;;8.90;6.10;;;16.80;72.50;;;;;;5038847;28;46505;-72
2023/04/29 06:43:44;;;;;;;10.93;6.10;;;16.80;71.80;;;;;;5038507;28;46630;-72
2023/04/29 06:46:09;;;;;;;8.10;5.90;;;16.70;71.60;;;;;;5037076;28;46430;-72
2023/04/29 06:48:35;;;;;;;8.30;5.90;;;16.60;71.90;;;;;;5039835;28;46442;-72
2023/04/29 06:51:01;;;;;;;13.40;6.10;;;16.40;72.00;;;;;;5036128;28;46506;-73
2023/04/29 06:53:27;;;;;;;6.50;5.20;;;16.20;72.30;;;;;;5040907;28;46465;-72
2023/04/29 06:55:53;;;;;;;8.77;5.70;;;16.10;72.30;;;;;;5038589;28;46420;-72
2023/04/29 06:58:19;;;;;;;7.00;5.30;;;16.00;72.50;;;;;;5040228;28;46611;-71
2023/04/29 07:00:46;;;;;;;6.70;5.07;;;16.00;72.30;;;;;;5039295;28;46521;-71
2023/04/29 07:03:12;;;;;;;5.80;4.73;;;16.20;72.20;;;;;;5039308;28;46360;-72
2023/04/29 07:05:44;;;;;;;6.90;4.93;;;16.10;71.90;;;;;;5033388;28;46409;-72
2023/04/29 07:08:11;;;;;;;14.00;5.13;;;16.00;72.20;;;;;;5040303;28;46530;-72
2023/04/29 07:10:37;;;;;;;7.10;4.70;;;15.80;72.10;;;;;;5036205;28;46593;-72
2023/04/29 07:13:03;;;;;;;7.20;5.80;;;15.70;72.70;;;;;;5038877;28;46445;-72
2023/04/29 07:15:30;;;;;;;8.43;5.50;;;15.70;72.90;;;;;;5037664;28;46640;-72
2023/04/29 07:17:55;;;;;;;7.13;4.57;;;15.90;72.90;;;;;;5039405;28;45899;-72
2023/04/29 07:20:21;;;;;;;6.97;5.20;;;16.10;72.50;;;;;;5040523;28;46396;-72
2023/04/29 07:22:47;;;;;;;7.33;5.00;;;16.30;72.10;;;;;;5039803;28;47007;-72
2023/04/29 07:25:13;;;;;;;8.60;5.10;;;16.50;72.00;;;;;;5036073;28;46459;-72
2023/04/29 07:27:39;;;;;;;7.80;5.00;;;16.80;71.80;;;;;;5038719;28;46616;-72
2023/04/29 07:30:05;;;;;;;4.80;3.73;;;17.20;71.10;;;;;;5038837;28;46480;-71
2023/04/29 07:32:31;;;;;;;6.00;4.43;;;17.70;70.10;;;;;;5036970;28;46482;-71
2023/04/29 07:34:57;;;;;;;7.80;5.03;;;18.10;68.60;;;;;;5040385;28;46358;-73
2023/04/29 07:37:23;;;;;;;4.90;3.83;;;18.20;67.80;;;;;;5040128;28;46407;-72
2023/04/29 07:39:49;;;;;;;6.90;4.10;;;17.80;67.40;;;;;;5039974;28;46595;-71
2023/04/29 07:42:14;;;;;;;8.20;3.77;;;17.60;68.60;;;;;;5037492;28;46900;-72
2023/04/29 07:44:40;;;;;;;7.40;3.67;;;17.80;68.00;;;;;;5038580;28;46370;-71
2023/04/29 07:47:06;;;;;;;6.00;3.73;;;17.50;67.90;;;;;;5036438;28;46581;-72
2023/04/29 07:49:31;;;;;;;5.27;3.10;;;17.10;68.40;;;;;;5039297;28;46045;-71
2023/04/29 07:51:57;;;;;;;7.20;3.50;;;16.90;68.70;;;;;;5036247;28;46471;-71
2023/04/29 07:54:23;;;;;;;6.13;3.40;;;16.90;68.70;;;;;;5039229;28;45854;-70
2023/04/29 07:56:48;;;;;;;5.13;3.30;;;16.80;68.50;;;;;;5036219;28;46390;-70
2023/04/29 07:59:14;;;;;;;5.60;3.70;;;17.00;68.00;;;;;;5036945;28;46419;-71
2023/04/29 08:01:41;;;;;;;5.27;3.70;;;17.40;67.60;;;;;;5037874;28;47179;-71
2023/04/29 08:04:06;;;;;;;4.43;3.30;;;18.00;66.60;;;;;;5034875;28;46497;-70
2023/04/29 08:06:32;;;;;;;4.93;3.53;;;18.30;65.70;;;;;;5036061;28;46844;-71
2023/04/29 08:08:58;;;;;;;4.63;3.27;;;18.40;65.70;;;;;;5037896;28;46373;-70
2023/04/29 08:11:25;;;;;;;5.23;2.70;;;18.50;65.80;;;;;;5037051;28;48061;-70
2023/04/29 08:13:51;;;;;;;4.20;2.80;;;18.60;64.70;;;;;;5038977;28;46378;-70
2023/04/29 08:16:16;;;;;;;5.13;2.80;;;18.30;63.50;;;;;;5033656;28;46400;-71
2023/04/29 08:18:42;;;;;;;5.43;2.50;;;18.10;63.10;;;;;;5034961;28;46651;-71
2023/04/29 08:21:10;;;;;;;3.20;1.97;;;17.80;63.30;;;;;;5032616;28;46421;-70
2023/04/29 08:23:36;;;;;;;4.83;2.20;;;17.90;62.70;;;;;;5034138;28;46551;-72
2023/04/29 08:26:02;;;;;;;3.93;2.60;;;17.90;62.60;;;;;;5037163;28;46421;-72
2023/04/29 08:28:28;;;;;;;5.23;2.80;;;18.10;63.30;;;;;;5033666;28;46417;-67
2023/04/29 08:30:54;;;;;;;4.73;2.43;;;17.70;63.00;;;;;;5031821;28;46496;-71
2023/04/29 08:33:20;;;;;;;5.70;2.67;;;17.20;63.40;;;;;;5035272;28;46424;-71
2023/04/29 08:35:45;;;;;;;3.73;2.30;;;17.30;64.60;;;;;;5036801;28;46604;-71
2023/04/29 08:38:11;;;;;;;13.13;2.10;;;17.80;63.40;;;;;;5036926;28;46443;-71
2023/04/29 08:40:45;;;;;;;4.83;2.43;;;18.20;60.80;;;;;;5035126;28;46332;-73
2023/04/29 08:43:14;;;;;;;6.53;2.40;;;18.30;58.90;;;;;;5035307;28;46391;-72
2023/04/29 08:45:41;;;;;;;4.43;2.03;;;18.30;57.90;;;;;;5035535;28;46401;-72
2023/04/29 08:48:07;;;;;;;2.87;1.93;;;18.00;57.50;;;;;;5036311;28;45931;-69
2023/04/29 08:50:40;;;;;;;4.23;1.90;;;18.00;56.70;;;;;;5032276;28;46689;-72
2023/04/29 08:53:11;;;;;;;3.90;2.03;;;18.10;57.30;;;;;;5037005;28;46386;-72
2023/04/29 08:55:44;;;;;;;4.73;2.10;;;18.00;57.70;;;;;;5038146;28;46129;-68
2023/04/29 08:58:11;;;;;;;4.30;2.27;;;18.10;57.20;;;;;;5038175;28;46511;-70
2023/04/29 09:00:38;;;;;;;9.07;2.30;;;18.30;56.10;;;;;;5034413;28;46352;-73
2023/04/29 09:03:30;;;;;;;4.77;2.30;;;18.40;54.80;;;;;;5034303;28;46343;-72
2023/04/29 09:05:59;;;;;;;3.00;1.90;;;18.60;53.70;;;;;;5029535;28;46413;-72
2023/04/29 09:08:26;;;;;;;3.30;1.83;;;19.10;52.80;;;;;;5034360;28;46500;-70
2023/04/29 09:10:52;;;;;;;3.50;2.10;;;19.80;51.70;;;;;;5035478;28;46606;-71
2023/04/29 09:13:28;;;;;;;3.00;2.20;;;19.60;50.70;;;;;;5033834;28;45787;-71
2023/04/29 09:15:54;;;;;;;5.10;2.00;;;19.40;50.50;;;;;;5034093;28;46401;-71
2023/04/29 09:18:49;;;;;;;4.17;2.00;;;19.70;51.20;;;;;;5035534;28;46362;-72
2023/04/29 09:21:26;;;;;;;3.30;2.13;;;19.70;50.30;;;;;;5034570;28;46376;-71
2023/04/29 09:23:56;;;;;;;3.67;2.20;;;19.30;50.80;;;;;;5036391;28;45842;-71
2023/04/29 09:26:25;;;;;;;3.80;1.80;;;19.10;52.40;;;;;;5036119;28;46355;-71
2023/04/29 09:29:12;;;;;;;2.70;1.50;;;18.90;51.40;;;;;;5036252;28;46503;-71
2023/04/29 09:31:39;;;;;;;4.20;1.70;;;19.10;51.00;;;;;;5035933;28;47130;-71
2023/04/29 09:34:05;;;;;;;3.83;1.73;;;19.10;49.20;;;;;;5036062;28;46373;-71
2023/04/29 09:36:41;;;;;;;3.40;1.90;;;19.40;48.80;;;;;;5035939;28;46725;-70
2023/04/29 09:39:15;;;;;;;3.00;1.97;;;19.70;48.60;;;;;;5043011;28;46456;-69
2023/04/29 09:41:53;;;;;;;3.70;1.60;;;19.90;46.40;;;;;;5038651;28;46499;-71
2023/04/29 09:44:27;;;;;;;10.37;1.83;;;19.80;46.90;;;;;;5038484;28;46472;-71
2023/04/29 09:46:58;;;;;;;3.90;1.80;;;19.90;46.80;;;;;;5039495;28;46511;-70
2023/04/29 09:49:29;;;;;;;3.80;2.03;;;19.30;46.10;;;;;;5040317;28;46389;-69
2023/04/29 09:51:57;;;;;;;5.50;2.00;;;19.10;47.00;;;;;;5034572;28;48313;-71
2023/04/29 09:54:24;;;;;;;5.57;2.13;;;19.20;47.50;;;;;;5040884;28;46421;-70
2023/04/29 09:56:52;;;;;;;5.53;2.17;;;19.10;46.10;;;;;;5038639;28;46574;-71
2023/04/29 09:59:18;;;;;;;5.57;1.93;;;18.80;46.60;;;;;;5040045;28;46443;-71
2023/04/29 10:01:50;;;;;;;3.53;2.37;;;18.60;47.00;;;;;;5035622;28;46241;-70
2023/04/29 10:04:17;;;;;;;4.87;2.37;;;18.30;46.60;;;;;;5037181;28;46418;-69
2023/04/29 10:06:47;;;;;;;6.80;1.90;;;18.40;47.80;;;;;;5040833;28;45898;-71
2023/04/29 10:09:17;;;;;;;3.43;1.80;;;18.50;45.20;;;;;;5041469;28;46426;-71
2023/04/29 10:11:47;;;;;;;4.20;1.60;;;18.40;44.30;;;;;;5035897;28;46437;-69
2023/04/29 10:14:15;;;;;;;4.40;1.83;;;18.40;43.90;;;;;;5037062;28;46319;-69
2023/04/29 10:16:49;;;;;;;3.60;1.50;;;18.50;43.30;;;;;;5038900;28;46504;-70
2023/04/29 10:19:26;;;;;;;3.93;1.50;;;18.60;43.30;;;;;;5040632;28;46778;-70
2023/04/29 10:21:57;;;;;;;2.80;1.30;;;18.30;42.00;;;;;;5039825;28;46949;-70
2023/04/29 10:24:25;;;;;;;4.03;1.97;;;18.40;42.50;;;;;;5038726;28;46477;-69
2023/04/29 10:26:52;;;;;;;3.10;1.47;;;18.80;42.50;;;;;;5039112;28;46492;-72
2023/04/29 10:29:18;;;;;;;3.17;1.70;;;19.10;41.60;;;;;;5039884;28;46787;-71
2023/04/29 10:31:47;;;;;;;5.60;1.67;;;18.90;40.20;;;;;;5037683;28;46436;-70
2023/04/29 10:34:15;;;;;;;5.40;1.63;;;18.40;40.40;;;;;;5039763;28;45836;-71
2023/04/29 10:36:41;;;;;;;3.10;1.57;;;18.20;41.70;;;;;;5033728;28;46708;-71
2023/04/29 10:39:12;;;;;;;3.50;1.90;;;18.50;42.60;;;;;;5039065;28;46412;-71
2023/04/29 10:41:46;;;;;;;3.07;1.60;;;18.20;40.60;;;;;;5036926;28;46684;-71
2023/04/29 10:44:13;;;;;;;2.87;1.43;;;18.10;41.50;;;;;;5039933;28;46298;-71
2023/04/29 10:46:39;;;;;;;2.90;1.60;;;18.20;41.20;;;;;;5033782;28;46456;-71
2023/04/29 10:49:05;;;;;;;2.30;1.30;;;18.30;41.20;;;;;;5039383;28;46279;-71
2023/04/29 10:51:41;;;;;;;3.30;1.80;;;18.40;41.70;;;;;;5038161;28;46697;-71
2023/04/29 10:54:12;;;;;;;3.83;1.90;;;18.60;42.20;;;;;;5040909;28;46737;-70
2023/04/29 10:56:49;;;;;;;3.20;1.50;;;18.90;41.80;;;;;;5038129;28;46148;-70
2023/04/29 10:59:41;;;;;;;7.53;1.70;;;18.90;40.60;;;;;;5038773;28;46515;-72
2023/04/29 11:02:08;;;;;;;2.83;1.40;;;19.00;40.60;;;;;;5038132;28;46659;-71
2023/04/29 11:04:34;;;;;;;4.43;1.40;;;19.10;39.10;;;;;;5036060;28;46426;-71
2023/04/29 11:07:01;;;;;;;3.03;1.60;;;18.80;37.20;;;;;;5037605;28;45763;-71
2023/04/29 11:09:29;;;;;;;2.23;1.20;;;18.80;36.50;;;;;;5036518;28;46465;-70
2023/04/29 11:11:56;;;;;;;2.50;1.33;;;18.50;35.60;;;;;;5037277;28;46493;-70
2023/04/29 11:14:35;;;;;;;2.63;1.20;;;18.30;34.50;;;;;;5038295;28;46439;-71
2023/04/29 11:17:14;;;;;;;2.70;1.30;;;18.40;35.80;;;;;;5037045;28;46417;-71
2023/04/29 11:19:48;;;;;;;4.80;1.40;;;18.60;35.90;;;;;;5036795;28;46416;-71
2023/04/29 11:22:24;;;;;;;4.03;1.27;;;18.70;34.10;;;;;;5037010;28;46715;-73
2023/04/29 11:24:59;;;;;;;7.80;1.47;;;18.70;33.30;;;;;;5038260;28;46446;-70
2023/04/29 11:27:30;;;;;;;2.20;1.20;;;18.70;31.10;;;;;;5036536;28;46381;-69
2023/04/29 11:29:57;;;;;;;5.07;1.53;;;19.00;33.10;;;;;;5037827;28;46149;-69
2023/04/29 11:32:27;;;;;;;7.93;1.53;;;19.10;33.20;;;;;;5031876;28;46469;-71
2023/04/29 11:34:53;;;;;;;3.20;1.30;;;18.90;33.00;;;;;;5037945;28;46548;-71
2023/04/29 11:37:23;;;;;;;2.80;1.33;;;18.70;32.70;;;;;;5035704;28;45871;-70
2023/04/29 11:39:51;;;;;;;6.30;1.70;;;18.30;32.50;;;;;;5038783;28;45882;-70
2023/04/29 11:42:21;;;;;;;2.90;1.60;;;18.50;33.40;;;;;;5035144;28;46627;-70
2023/04/29 11:44:49;;;;;;;2.57;1.30;;;18.80;33.40;;;;;;5037839;28;46339;-68
2023/04/29 11:47:15;;;;;;;3.63;1.50;;;18.60;32.20;;;;;;5038310;28;46423;-70
2023/04/29 11:49:41;;;;;;;3.93;1.50;;;18.80;32.50;;;;;;5038752;28;46404;-70
2023/04/29 11:52:07;;;;;;;2.80;1.70;;;19.00;32.30;;;;;;5035288;28;46516;-68
2023/04/29 11:54:33;;;;;;;6.00;1.67;;;18.90;31.20;;;;;;5035294;28;46309;-71
2023/04/29 11:56:59;;;;;;;2.70;1.30;;;18.70;31.80;;;;;;5034196;28;46291;-71
2023/04/29 11:59:25;;;;;;;2.67;1.43;;;18.70;32.70;;;;;;5036219;28;45897;-70
2023/04/29 12:01:51;;;;;;;4.33;1.40;;;19.00;33.10;;;;;;5037102;28;47053;-71
2023/04/29 12:04:18;;;;;;;2.80;1.50;;;19.20;31.60;;;;;;5036001;28;46598;-71
2023/04/29 12:06:45;;;;;;;3.17;1.50;;;19.30;31.90;;;;;;5036259;28;46718;-70
2023/04/29 12:09:10;;;;;;;2.60;1.20;;;19.60;32.30;;;;;;5037245;28;46635;-70
2023/04/29 12:11:37;;;;;;;2.67;1.17;;;19.70;32.30;;;;;;5033079;28;46420;-71
2023/04/29 12:14:05;;;;;;;2.73;1.43;;;19.70;30.80;;;;;;5035597;28;46422;-70
2023/04/29 12:16:32;;;;;;;2.60;1.37;;;19.60;30.80;;;;;;5037253;28;46429;-71
2023/04/29 12:18:58;;;;;;;3.40;1.40;;;19.60;30.00;;;;;;5036267;28;46419;-71
2023/04/29 12:21:25;;;;;;;2.13;1.10;;;19.90;30.70;;;;;;5036206;28;47453;-70
2023/04/29 12:23:51;;;;;;;2.70;1.37;;;20.10;30.10;;;;;;5033590;28;46409;-70
2023/04/29 12:26:19;;;;;;;3.33;1.50;;;19.90;28.70;;;;;;5038027;28;46686;-70
2023/04/29 12:28:47;;;;;;;7.13;1.80;;;19.70;28.40;;;;;;5038252;28;46580;-70
2023/04/29 12:31:14;;;;;;;3.70;1.43;;;19.50;28.50;;;;;;5036467;28;46538;-71
2023/04/29 12:33:45;;;;;;;2.10;1.03;;;19.40;28.10;;;;;;5037411;28;46416;-70
2023/04/29 12:36:17;;;;;;;3.00;1.10;;;19.30;28.00;;;;;;5036072;28;46488;-71
2023/04/29 12:38:44;;;;;;;3.53;1.20;;;19.20;28.20;;;;;;5033667;28;46416;-71
2023/04/29 12:41:12;;;;;;;4.00;1.20;;;19.10;28.00;;;;;;5037207;28;46428;-71
2023/04/29 12:43:37;;;;;;;2.30;1.10;;;19.10;28.30;;;;;;5034544;28;46614;-71
2023/04/29 12:46:05;;;;;;;3.23;1.23;;;19.00;28.30;;;;;;5036930;28;46423;-71